sensor_id;sensor_type;location;lat;lon;timestamp;P1;durP1;ratioP1;P2;durP2;ratioP2
6424;SDS011;12193;42.642;23.384;2022-08-19T03:08:42;8.20;;;7.10;;
6424;SDS011;12193;42.642;23.384;2022-08-19T03:11:12;11.40;;;6.83;;
6424;SDS011;12193;42.642;23.384;2022-08-19T03:13:41;10.77;;;6.80;;
6424;SDS011;12193;42.642;23.384;2022-08-19T03:16:11;10.03;;;7.10;;
6424;SDS011;12193;42.642;23.384;2022-08-19T03:18:40;8.63;;;6.83;;
6424;SDS011;12193;42.642;23.384;2022-08-19T03:21:09;8.97;;;7.00;;
6424;SDS011;12193;42.642;23.384;2022-08-19T03:23:38;10.67;;;6.83;;
6424;SDS011;12193;42.642;23.384;2022-08-19T03:26:09;10.77;;;7.17;;
6424;SDS011;12193;42.642;23.384;2022-08-19T03:28:40;8.97;;;7.17;;
6424;SDS011;12193;42.642;23.384;2022-08-19T03:31:10;8.67;;;6.73;;
6424;SDS011;12193;42.642;23.384;2022-08-19T03:33:40;12.30;;;7.13;;
6424;SDS011;12193;42.642;23.384;2022-08-19T03:36:10;11.33;;;7.33;;
6424;SDS011;12193;42.642;23.384;2022-08-19T03:38:41;10.47;;;7.33;;
6424;SDS011;12193;42.642;23.384;2022-08-19T03:41:15;9.80;;;7.03;;
6424;SDS011;12193;42.642;23.384;2022-08-19T03:43:44;10.10;;;7.07;;
6424;SDS011;12193;42.642;23.384;2022-08-19T03:46:15;9.87;;;6.73;;
6424;SDS011;12193;42.642;23.384;2022-08-19T03:48:46;9.83;;;6.80;;
6424;SDS011;12193;42.642;23.384;2022-08-19T03:51:20;11.17;;;6.70;;
6424;SDS011;12193;42.642;23.384;2022-08-19T03:53:50;9.00;;;6.10;;
6424;SDS011;12193;42.642;23.384;2022-08-19T03:56:21;11.70;;;6.97;;
6424;SDS011;12193;42.642;23.384;2022-08-19T03:58:51;10.43;;;7.63;;
6424;SDS011;12193;42.642;23.384;2022-08-19T04:01:22;8.70;;;6.47;;
6424;SDS011;12193;42.642;23.384;2022-08-19T04:03:52;10.40;;;7.00;;
6424;SDS011;12193;42.642;23.384;2022-08-19T04:06:22;9.50;;;7.03;;
6424;SDS011;12193;42.642;23.384;2022-08-19T04:08:51;9.00;;;6.23;;
6424;SDS011;12193;42.642;23.384;2022-08-19T04:11:23;9.47;;;6.37;;
6424;SDS011;12193;42.642;23.384;2022-08-19T04:13:53;12.37;;;7.27;;
6424;SDS011;12193;42.642;23.384;2022-08-19T04:16:23;8.77;;;6.70;;
6424;SDS011;12193;42.642;23.384;2022-08-19T04:18:54;10.07;;;6.70;;
6424;SDS011;12193;42.642;23.384;2022-08-19T04:21:24;10.00;;;6.77;;
6424;SDS011;12193;42.642;23.384;2022-08-19T04:23:53;12.77;;;7.10;;
6424;SDS011;12193;42.642;23.384;2022-08-19T04:26:25;9.67;;;7.33;;
6424;SDS011;12193;42.642;23.384;2022-08-19T04:28:54;9.13;;;6.70;;
6424;SDS011;12193;42.642;23.384;2022-08-19T04:31:25;9.87;;;7.00;;
6424;SDS011;12193;42.642;23.384;2022-08-19T04:33:54;11.83;;;7.03;;
6424;SDS011;12193;42.642;23.384;2022-08-19T04:36:24;10.37;;;7.23;;
6424;SDS011;12193;42.642;23.384;2022-08-19T04:38:54;8.27;;;6.77;;
6424;SDS011;12193;42.642;23.384;2022-08-19T04:41:26;10.67;;;7.00;;
6424;SDS011;12193;42.642;23.384;2022-08-19T04:44:08;9.57;;;6.77;;
6424;SDS011;12193;42.642;23.384;2022-08-19T04:46:37;12.33;;;7.70;;
6424;SDS011;12193;42.642;23.384;2022-08-19T04:49:06;9.50;;;7.27;;
6424;SDS011;12193;42.642;23.384;2022-08-19T04:51:35;9.33;;;7.17;;
6424;SDS011;12193;42.642;23.384;2022-08-19T04:54:04;9.73;;;7.10;;
6424;SDS011;12193;42.642;23.384;2022-08-19T04:56:35;8.93;;;6.87;;
6424;SDS011;12193;42.642;23.384;2022-08-19T04:59:04;9.70;;;7.23;;
6424;SDS011;12193;42.642;23.384;2022-08-19T05:01:34;10.33;;;7.23;;
6424;SDS011;12193;42.642;23.384;2022-08-19T05:04:04;10.23;;;7.37;;
6424;SDS011;12193;42.642;23.384;2022-08-19T05:06:33;9.70;;;6.60;;
6424;SDS011;12193;42.642;23.384;2022-08-19T05:09:03;12.10;;;6.60;;
6424;SDS011;12193;42.642;23.384;2022-08-19T05:11:33;10.70;;;7.30;;
6424;SDS011;12193;42.642;23.384;2022-08-19T05:14:04;11.23;;;7.67;;
6424;SDS011;12193;42.642;23.384;2022-08-19T05:16:33;10.17;;;7.17;;
6424;SDS011;12193;42.642;23.384;2022-08-19T05:19:02;12.50;;;6.90;;
6424;SDS011;12193;42.642;23.384;2022-08-19T05:21:43;9.77;;;7.23;;
6424;SDS011;12193;42.642;23.384;2022-08-19T05:24:25;12.63;;;7.60;;
6424;SDS011;12193;42.642;23.384;2022-08-19T05:26:55;9.83;;;7.07;;
6424;SDS011;12193;42.642;23.384;2022-08-19T05:29:27;9.40;;;7.00;;
6424;SDS011;12193;42.642;23.384;2022-08-19T05:31:57;8.80;;;6.97;;
6424;SDS011;12193;42.642;23.384;2022-08-19T05:34:26;10.33;;;7.80;;
6424;SDS011;12193;42.642;23.384;2022-08-19T05:36:57;12.13;;;7.60;;
6424;SDS011;12193;42.642;23.384;2022-08-19T05:39:27;12.70;;;7.97;;
6424;SDS011;12193;42.642;23.384;2022-08-19T05:41:57;10.50;;;7.17;;
6424;SDS011;12193;42.642;23.384;2022-08-19T05:44:29;12.10;;;7.80;;
6424;SDS011;12193;42.642;23.384;2022-08-19T05:47:00;9.90;;;7.17;;
6424;SDS011;12193;42.642;23.384;2022-08-19T05:49:30;12.70;;;7.50;;
6424;SDS011;12193;42.642;23.384;2022-08-19T05:52:01;10.83;;;7.20;;
6424;SDS011;12193;42.642;23.384;2022-08-19T05:54:30;13.97;;;8.90;;
6424;SDS011;12193;42.642;23.384;2022-08-19T05:57:00;20.00;;;8.63;;
6424;SDS011;12193;42.642;23.384;2022-08-19T05:59:31;11.67;;;7.80;;
6424;SDS011;12193;42.642;23.384;2022-08-19T06:02:00;12.00;;;7.83;;
6424;SDS011;12193;42.642;23.384;2022-08-19T06:04:30;13.60;;;7.93;;
6424;SDS011;12193;42.642;23.384;2022-08-19T06:06:58;8.93;;;7.17;;
6424;SDS011;12193;42.642;23.384;2022-08-19T06:09:28;8.00;;;6.83;;
6424;SDS011;12193;42.642;23.384;2022-08-19T06:11:57;8.50;;;6.43;;
6424;SDS011;12193;42.642;23.384;2022-08-19T06:14:29;7.93;;;6.67;;
6424;SDS011;12193;42.642;23.384;2022-08-19T06:17:01;7.97;;;5.90;;
6424;SDS011;12193;42.642;23.384;2022-08-19T06:19:30;8.03;;;6.20;;
6424;SDS011;12193;42.642;23.384;2022-08-19T06:21:59;9.10;;;5.90;;
6424;SDS011;12193;42.642;23.384;2022-08-19T06:24:29;10.67;;;6.20;;
6424;SDS011;12193;42.642;23.384;2022-08-19T06:26:58;7.63;;;5.80;;
6424;SDS011;12193;42.642;23.384;2022-08-19T06:29:27;7.13;;;6.13;;
6424;SDS011;12193;42.642;23.384;2022-08-19T06:31:57;10.17;;;6.70;;
6424;SDS011;12193;42.642;23.384;2022-08-19T06:34:31;10.40;;;6.20;;
6424;SDS011;12193;42.642;23.384;2022-08-19T06:37:01;9.00;;;7.00;;
6424;SDS011;12193;42.642;23.384;2022-08-19T06:39:34;8.13;;;6.53;;
6424;SDS011;12193;42.642;23.384;2022-08-19T06:42:04;13.63;;;7.00;;
6424;SDS011;12193;42.642;23.384;2022-08-19T06:44:37;8.60;;;6.23;;
6424;SDS011;12193;42.642;23.384;2022-08-19T06:47:07;10.50;;;6.60;;
6424;SDS011;12193;42.642;23.384;2022-08-19T06:49:39;10.90;;;7.30;;
6424;SDS011;12193;42.642;23.384;2022-08-19T06:52:08;10.67;;;7.10;;
6424;SDS011;12193;42.642;23.384;2022-08-19T06:54:37;12.17;;;7.00;;
6424;SDS011;12193;42.642;23.384;2022-08-19T06:57:07;11.80;;;6.83;;
6424;SDS011;12193;42.642;23.384;2022-08-19T06:59:41;10.37;;;7.20;;
6424;SDS011;12193;42.642;23.384;2022-08-19T07:02:09;8.80;;;6.73;;
6424;SDS011;12193;42.642;23.384;2022-08-19T07:04:40;11.27;;;7.00;;
6424;SDS011;12193;42.642;23.384;2022-08-19T07:07:10;10.30;;;6.60;;
6424;SDS011;12193;42.642;23.384;2022-08-19T07:09:40;9.13;;;6.47;;
6424;SDS011;12193;42.642;23.384;2022-08-19T07:12:10;11.20;;;6.83;;
6424;SDS011;12193;42.642;23.384;2022-08-19T07:14:39;11.07;;;7.10;;
6424;SDS011;12193;42.642;23.384;2022-08-19T07:17:09;13.77;;;6.83;;
6424;SDS011;12193;42.642;23.384;2022-08-19T07:19:38;9.00;;;6.47;;
6424;SDS011;12193;42.642;23.384;2022-08-19T07:22:10;13.47;;;8.00;;
6424;SDS011;12193;42.642;23.384;2022-08-19T07:24:40;9.67;;;6.93;;
6424;SDS011;12193;42.642;23.384;2022-08-19T07:27:09;9.93;;;7.00;;
6424;SDS011;12193;42.642;23.384;2022-08-19T07:29:37;10.13;;;6.40;;
6424;SDS011;12193;42.642;23.384;2022-08-19T07:32:07;9.53;;;6.60;;
6424;SDS011;12193;42.642;23.384;2022-08-19T07:34:37;15.60;;;7.23;;
6424;SDS011;12193;42.642;23.384;2022-08-19T07:37:06;16.53;;;7.20;;
6424;SDS011;12193;42.642;23.384;2022-08-19T07:39:38;8.77;;;6.30;;
6424;SDS011;12193;42.642;23.384;2022-08-19T07:42:08;7.87;;;6.37;;
6424;SDS011;12193;42.642;23.384;2022-08-19T07:44:39;14.82;;;7.40;;
6424;SDS011;12193;42.642;23.384;2022-08-19T07:47:08;11.68;;;7.10;;
6424;SDS011;12193;42.642;23.384;2022-08-19T07:49:36;9.27;;;6.47;;
6424;SDS011;12193;42.642;23.384;2022-08-19T07:52:06;15.48;;;6.90;;
6424;SDS011;12193;42.642;23.384;2022-08-19T07:54:38;13.32;;;6.63;;
6424;SDS011;12193;42.642;23.384;2022-08-19T07:57:07;11.30;;;6.75;;
6424;SDS011;12193;42.642;23.384;2022-08-19T07:59:37;10.07;;;6.32;;
6424;SDS011;12193;42.642;23.384;2022-08-19T08:02:05;9.00;;;6.90;;
6424;SDS011;12193;42.642;23.384;2022-08-19T08:04:34;14.52;;;6.55;;
6424;SDS011;12193;42.642;23.384;2022-08-19T08:07:18;7.70;;;6.78;;
6424;SDS011;12193;42.642;23.384;2022-08-19T08:10:02;11.73;;;7.32;;
6424;SDS011;12193;42.642;23.384;2022-08-19T08:12:32;11.80;;;6.75;;
6424;SDS011;12193;42.642;23.384;2022-08-19T08:15:07;8.57;;;6.90;;
6424;SDS011;12193;42.642;23.384;2022-08-19T08:17:36;10.05;;;6.28;;
6424;SDS011;12193;42.642;23.384;2022-08-19T08:20:05;10.13;;;7.07;;
6424;SDS011;12193;42.642;23.384;2022-08-19T08:22:35;11.20;;;6.00;;
6424;SDS011;12193;42.642;23.384;2022-08-19T08:25:19;10.80;;;6.57;;
6424;SDS011;12193;42.642;23.384;2022-08-19T08:27:49;12.15;;;6.90;;
6424;SDS011;12193;42.642;23.384;2022-08-19T08:30:19;11.20;;;7.20;;
6424;SDS011;12193;42.642;23.384;2022-08-19T08:32:48;10.82;;;6.50;;
6424;SDS011;12193;42.642;23.384;2022-08-19T08:35:18;9.82;;;6.82;;
6424;SDS011;12193;42.642;23.384;2022-08-19T08:37:48;12.07;;;7.00;;
6424;SDS011;12193;42.642;23.384;2022-08-19T08:40:21;16.88;;;7.20;;
6424;SDS011;12193;42.642;23.384;2022-08-19T08:42:51;9.20;;;6.40;;
6424;SDS011;12193;42.642;23.384;2022-08-19T08:45:24;9.65;;;6.78;;
6424;SDS011;12193;42.642;23.384;2022-08-19T08:47:53;8.02;;;6.35;;
6424;SDS011;12193;42.642;23.384;2022-08-19T08:50:25;7.60;;;5.93;;
6424;SDS011;12193;42.642;23.384;2022-08-19T08:52:56;11.50;;;6.35;;
6424;SDS011;12193;42.642;23.384;2022-08-19T08:55:28;11.95;;;6.10;;
6424;SDS011;12193;42.642;23.384;2022-08-19T08:57:59;10.32;;;5.82;;
6424;SDS011;12193;42.642;23.384;2022-08-19T09:00:30;8.45;;;5.30;;
6424;SDS011;12193;42.642;23.384;2022-08-19T09:02:59;10.82;;;5.47;;
6424;SDS011;12193;42.642;23.384;2022-08-19T09:05:33;8.13;;;5.80;;
6424;SDS011;12193;42.642;23.384;2022-08-19T09:08:07;10.98;;;5.53;;
6424;SDS011;12193;42.642;23.384;2022-08-19T09:10:49;7.70;;;5.63;;
6424;SDS011;12193;42.642;23.384;2022-08-19T09:13:21;9.80;;;5.25;;
6424;SDS011;12193;42.642;23.384;2022-08-19T09:15:54;9.30;;;5.05;;
6424;SDS011;12193;42.642;23.384;2022-08-19T09:18:31;9.40;;;4.93;;
6424;SDS011;12193;42.642;23.384;2022-08-19T09:21:06;10.75;;;5.50;;
6424;SDS011;12193;42.642;23.384;2022-08-19T09:23:36;9.00;;;5.55;;
6424;SDS011;12193;42.642;23.384;2022-08-19T09:26:10;9.50;;;5.50;;
6424;SDS011;12193;42.642;23.384;2022-08-19T09:28:40;9.32;;;5.32;;
6424;SDS011;12193;42.642;23.384;2022-08-19T09:31:11;6.80;;;4.80;;
6424;SDS011;12193;42.642;23.384;2022-08-19T09:33:39;7.80;;;4.65;;
6424;SDS011;12193;42.642;23.384;2022-08-19T09:36:10;6.97;;;4.60;;
6424;SDS011;12193;42.642;23.384;2022-08-19T09:38:39;7.35;;;4.65;;
6424;SDS011;12193;42.642;23.384;2022-08-19T09:41:12;6.88;;;4.70;;
6424;SDS011;12193;42.642;23.384;2022-08-19T09:43:43;7.80;;;4.70;;
6424;SDS011;12193;42.642;23.384;2022-08-19T09:46:13;6.07;;;5.05;;
6424;SDS011;12193;42.642;23.384;2022-08-19T09:48:42;6.15;;;4.40;;
6424;SDS011;12193;42.642;23.384;2022-08-19T09:51:14;6.65;;;4.45;;
6424;SDS011;12193;42.642;23.384;2022-08-19T09:53:44;5.07;;;4.38;;
6424;SDS011;12193;42.642;23.384;2022-08-19T09:56:18;6.57;;;4.93;;
6424;SDS011;12193;42.642;23.384;2022-08-19T09:58:47;8.00;;;4.72;;
6424;SDS011;12193;42.642;23.384;2022-08-19T10:01:17;7.13;;;5.13;;
6424;SDS011;12193;42.642;23.384;2022-08-19T10:03:47;9.65;;;4.68;;
6424;SDS011;12193;42.642;23.384;2022-08-19T10:06:19;5.78;;;4.35;;
6424;SDS011;12193;42.642;23.384;2022-08-19T10:08:49;8.05;;;4.55;;
6424;SDS011;12193;42.642;23.384;2022-08-19T10:11:21;7.47;;;5.30;;
6424;SDS011;12193;42.642;23.384;2022-08-19T10:13:50;6.30;;;4.85;;
6424;SDS011;12193;42.642;23.384;2022-08-19T10:16:20;6.75;;;4.85;;
6424;SDS011;12193;42.642;23.384;2022-08-19T10:18:49;5.45;;;4.53;;
6424;SDS011;12193;42.642;23.384;2022-08-19T10:21:19;6.35;;;4.85;;
6424;SDS011;12193;42.642;23.384;2022-08-19T10:23:50;5.90;;;4.75;;
6424;SDS011;12193;42.642;23.384;2022-08-19T10:26:23;7.10;;;4.65;;
6424;SDS011;12193;42.642;23.384;2022-08-19T10:28:53;6.75;;;4.40;;
6424;SDS011;12193;42.642;23.384;2022-08-19T10:31:24;9.15;;;5.10;;
6424;SDS011;12193;42.642;23.384;2022-08-19T10:33:53;10.82;;;4.93;;
6424;SDS011;12193;42.642;23.384;2022-08-19T10:36:24;7.25;;;4.88;;
6424;SDS011;12193;42.642;23.384;2022-08-19T10:38:54;7.53;;;4.85;;
6424;SDS011;12193;42.642;23.384;2022-08-19T10:41:27;5.40;;;4.57;;
6424;SDS011;12193;42.642;23.384;2022-08-19T10:43:57;5.85;;;4.72;;
6424;SDS011;12193;42.642;23.384;2022-08-19T10:46:27;6.15;;;4.82;;
6424;SDS011;12193;42.642;23.384;2022-08-19T10:48:58;7.97;;;4.82;;
6424;SDS011;12193;42.642;23.384;2022-08-19T10:51:27;5.57;;;5.07;;
6424;SDS011;12193;42.642;23.384;2022-08-19T10:54:08;5.05;;;4.60;;
6424;SDS011;12193;42.642;23.384;2022-08-19T10:56:39;8.30;;;5.43;;
6424;SDS011;12193;42.642;23.384;2022-08-19T10:59:18;6.63;;;4.90;;
6424;SDS011;12193;42.642;23.384;2022-08-19T11:01:48;6.00;;;5.28;;
6424;SDS011;12193;42.642;23.384;2022-08-19T11:04:17;6.88;;;5.05;;
6424;SDS011;12193;42.642;23.384;2022-08-19T11:06:46;8.60;;;5.28;;
6424;SDS011;12193;42.642;23.384;2022-08-19T11:09:16;7.80;;;5.22;;
6424;SDS011;12193;42.642;23.384;2022-08-19T11:11:48;5.60;;;5.00;;
6424;SDS011;12193;42.642;23.384;2022-08-19T11:14:18;7.07;;;5.43;;
6424;SDS011;12193;42.642;23.384;2022-08-19T11:16:48;8.07;;;5.35;;
6424;SDS011;12193;42.642;23.384;2022-08-19T11:19:17;6.00;;;5.13;;
6424;SDS011;12193;42.642;23.384;2022-08-19T11:21:47;8.35;;;5.20;;
6424;SDS011;12193;42.642;23.384;2022-08-19T11:24:16;5.47;;;4.97;;
6424;SDS011;12193;42.642;23.384;2022-08-19T11:26:49;5.93;;;5.00;;
6424;SDS011;12193;42.642;23.384;2022-08-19T11:29:19;7.88;;;5.40;;
6424;SDS011;12193;42.642;23.384;2022-08-19T11:31:53;7.45;;;5.60;;
6424;SDS011;12193;42.642;23.384;2022-08-19T11:34:23;8.60;;;5.45;;
6424;SDS011;12193;42.642;23.384;2022-08-19T11:36:53;6.25;;;4.60;;
6424;SDS011;12193;42.642;23.384;2022-08-19T11:39:24;9.88;;;5.13;;
6424;SDS011;12193;42.642;23.384;2022-08-19T11:41:56;9.63;;;5.70;;
6424;SDS011;12193;42.642;23.384;2022-08-19T11:44:26;7.78;;;4.93;;
6424;SDS011;12193;42.642;23.384;2022-08-19T11:46:55;7.47;;;5.30;;
6424;SDS011;12193;42.642;23.384;2022-08-19T11:49:26;7.32;;;4.80;;
6424;SDS011;12193;42.642;23.384;2022-08-19T11:51:55;6.10;;;4.75;;
6424;SDS011;12193;42.642;23.384;2022-08-19T11:54:23;9.95;;;4.93;;
6424;SDS011;12193;42.642;23.384;2022-08-19T11:56:52;8.18;;;5.28;;
6424;SDS011;12193;42.642;23.384;2022-08-19T11:59:23;7.80;;;5.10;;
6424;SDS011;12193;42.642;23.384;2022-08-19T12:01:52;8.50;;;5.28;;
6424;SDS011;12193;42.642;23.384;2022-08-19T12:04:21;8.45;;;5.30;;
6424;SDS011;12193;42.642;23.384;2022-08-19T12:06:50;7.53;;;4.90;;
6424;SDS011;12193;42.642;23.384;2022-08-19T12:09:20;5.63;;;4.97;;
6424;SDS011;12193;42.642;23.384;2022-08-19T12:11:48;6.35;;;5.20;;
6424;SDS011;12193;42.642;23.384;2022-08-19T12:14:17;7.22;;;5.07;;
6424;SDS011;12193;42.642;23.384;2022-08-19T12:16:49;10.75;;;5.90;;
6424;SDS011;12193;42.642;23.384;2022-08-19T12:19:17;6.30;;;5.18;;
6424;SDS011;12193;42.642;23.384;2022-08-19T12:21:46;6.63;;;5.43;;
6424;SDS011;12193;42.642;23.384;2022-08-19T12:24:15;6.07;;;5.10;;
6424;SDS011;12193;42.642;23.384;2022-08-19T12:26:48;9.55;;;6.10;;
6424;SDS011;12193;42.642;23.384;2022-08-19T12:29:17;8.15;;;6.40;;
6424;SDS011;12193;42.642;23.384;2022-08-19T12:31:49;8.15;;;5.68;;
6424;SDS011;12193;42.642;23.384;2022-08-19T12:34:17;9.00;;;5.25;;
6424;SDS011;12193;42.642;23.384;2022-08-19T12:36:47;8.68;;;5.50;;
6424;SDS011;12193;42.642;23.384;2022-08-19T12:39:17;7.13;;;5.22;;
6424;SDS011;12193;42.642;23.384;2022-08-19T12:41:45;7.45;;;5.60;;
6424;SDS011;12193;42.642;23.384;2022-08-19T12:44:14;7.57;;;5.30;;
6424;SDS011;12193;42.642;23.384;2022-08-19T12:46:43;7.38;;;5.55;;
6424;SDS011;12193;42.642;23.384;2022-08-19T12:49:14;6.35;;;5.32;;
6424;SDS011;12193;42.642;23.384;2022-08-19T12:51:43;7.53;;;5.45;;
6424;SDS011;12193;42.642;23.384;2022-08-19T12:54:12;8.25;;;5.82;;
6424;SDS011;12193;42.642;23.384;2022-08-19T12:56:41;6.57;;;5.32;;
6424;SDS011;12193;42.642;23.384;2022-08-19T12:59:10;7.72;;;5.50;;
6424;SDS011;12193;42.642;23.384;2022-08-19T13:01:39;13.98;;;6.30;;
6424;SDS011;12193;42.642;23.384;2022-08-19T13:04:08;8.07;;;5.72;;
6424;SDS011;12193;42.642;23.384;2022-08-19T13:06:39;7.45;;;5.40;;
6424;SDS011;12193;42.642;23.384;2022-08-19T13:09:08;7.45;;;5.20;;
6424;SDS011;12193;42.642;23.384;2022-08-19T13:11:37;8.50;;;6.05;;
6424;SDS011;12193;42.642;23.384;2022-08-19T13:14:06;8.73;;;6.00;;
6424;SDS011;12193;42.642;23.384;2022-08-19T13:16:36;6.85;;;5.63;;
6424;SDS011;12193;42.642;23.384;2022-08-19T13:19:24;6.53;;;5.68;;
6424;SDS011;12193;42.642;23.384;2022-08-19T13:34:28;8.77;;;6.20;;
6424;SDS011;12193;42.642;23.384;2022-08-19T13:57:46;10.15;;;5.90;;
6424;SDS011;12193;42.642;23.384;2022-08-19T14:00:34;11.07;;;6.10;;
6424;SDS011;12193;42.642;23.384;2022-08-19T14:03:33;7.32;;;5.80;;
6424;SDS011;12193;42.642;23.384;2022-08-19T14:06:19;8.25;;;6.05;;
6424;SDS011;12193;42.642;23.384;2022-08-19T14:09:10;9.48;;;6.22;;
6424;SDS011;12193;42.642;23.384;2022-08-19T14:12:03;8.10;;;5.78;;
6424;SDS011;12193;42.642;23.384;2022-08-19T14:26:29;8.20;;;5.80;;
6424;SDS011;12193;42.642;23.384;2022-08-19T14:28:58;12.63;;;6.28;;
6424;SDS011;12193;42.642;23.384;2022-08-19T14:31:27;9.02;;;6.15;;
6424;SDS011;12193;42.642;23.384;2022-08-19T14:33:55;8.45;;;6.50;;
6424;SDS011;12193;42.642;23.384;2022-08-19T14:36:25;9.93;;;6.32;;
6424;SDS011;12193;42.642;23.384;2022-08-19T14:38:53;9.10;;;6.22;;
6424;SDS011;12193;42.642;23.384;2022-08-19T14:41:23;9.45;;;6.25;;
6424;SDS011;12193;42.642;23.384;2022-08-19T14:43:55;9.00;;;5.80;;
6424;SDS011;12193;42.642;23.384;2022-08-19T14:46:25;7.90;;;5.85;;
6424;SDS011;12193;42.642;23.384;2022-08-19T14:48:54;10.05;;;5.93;;
6424;SDS011;12193;42.642;23.384;2022-08-19T14:51:24;12.35;;;5.97;;
6424;SDS011;12193;42.642;23.384;2022-08-19T14:53:53;9.80;;;5.90;;
6424;SDS011;12193;42.642;23.384;2022-08-19T14:56:24;10.50;;;6.07;;
6424;SDS011;12193;42.642;23.384;2022-08-19T14:58:55;9.80;;;5.97;;
6424;SDS011;12193;42.642;23.384;2022-08-19T15:01:27;7.35;;;5.70;;
6424;SDS011;12193;42.642;23.384;2022-08-19T15:03:56;7.15;;;5.90;;
6424;SDS011;12193;42.642;23.384;2022-08-19T15:06:25;9.02;;;5.63;;
6424;SDS011;12193;42.642;23.384;2022-08-19T15:08:54;7.00;;;5.32;;
6424;SDS011;12193;42.642;23.384;2022-08-19T15:11:23;7.18;;;5.93;;
6424;SDS011;12193;42.642;23.384;2022-08-19T15:13:55;9.30;;;5.82;;
6424;SDS011;12193;42.642;23.384;2022-08-19T15:16:25;9.23;;;6.13;;
6424;SDS011;12193;42.642;23.384;2022-08-19T15:18:55;7.32;;;5.75;;
6424;SDS011;12193;42.642;23.384;2022-08-19T15:21:24;10.02;;;5.55;;
6424;SDS011;12193;42.642;23.384;2022-08-19T15:23:53;9.82;;;6.15;;
6424;SDS011;12193;42.642;23.384;2022-08-19T15:26:22;10.60;;;6.93;;
6424;SDS011;12193;42.642;23.384;2022-08-19T15:28:51;7.85;;;5.80;;
6424;SDS011;12193;42.642;23.384;2022-08-19T15:31:23;7.43;;;5.57;;
6424;SDS011;12193;42.642;23.384;2022-08-19T15:33:53;8.63;;;5.82;;
6424;SDS011;12193;42.642;23.384;2022-08-19T15:36:23;8.88;;;6.05;;
6424;SDS011;12193;42.642;23.384;2022-08-19T15:38:51;7.82;;;6.32;;
6424;SDS011;12193;42.642;23.384;2022-08-19T15:41:22;8.55;;;5.60;;
6424;SDS011;12193;42.642;23.384;2022-08-19T15:43:52;13.20;;;5.68;;
6424;SDS011;12193;42.642;23.384;2022-08-19T15:46:25;7.38;;;5.57;;
6424;SDS011;12193;42.642;23.384;2022-08-19T15:48:56;10.57;;;5.50;;
6424;SDS011;12193;42.642;23.384;2022-08-19T15:51:25;6.45;;;5.00;;
6424;SDS011;12193;42.642;23.384;2022-08-19T15:53:54;8.07;;;5.30;;
6424;SDS011;12193;42.642;23.384;2022-08-19T15:56:23;6.18;;;4.95;;
6424;SDS011;12193;42.642;23.384;2022-08-19T15:59:12;8.43;;;5.30;;
6424;SDS011;12193;42.642;23.384;2022-08-19T16:01:56;8.77;;;5.53;;
6424;SDS011;12193;42.642;23.384;2022-08-19T16:04:37;9.90;;;5.17;;
6424;SDS011;12193;42.642;23.384;2022-08-19T16:07:18;9.10;;;5.20;;
6424;SDS011;12193;42.642;23.384;2022-08-19T16:09:47;6.10;;;5.28;;
6424;SDS011;12193;42.642;23.384;2022-08-19T16:12:15;8.00;;;5.63;;
6424;SDS011;12193;42.642;23.384;2022-08-19T16:14:44;8.17;;;5.37;;
6424;SDS011;12193;42.642;23.384;2022-08-19T16:17:17;8.27;;;5.13;;
6424;SDS011;12193;42.642;23.384;2022-08-19T16:19:46;6.50;;;5.20;;
6424;SDS011;12193;42.642;23.384;2022-08-19T16:22:15;8.57;;;5.43;;
6424;SDS011;12193;42.642;23.384;2022-08-19T16:24:44;8.83;;;6.27;;
6424;SDS011;12193;42.642;23.384;2022-08-19T16:27:13;7.20;;;5.20;;
6424;SDS011;12193;42.642;23.384;2022-08-19T16:29:42;6.13;;;5.17;;
6424;SDS011;12193;42.642;23.384;2022-08-19T16:32:11;9.93;;;5.20;;
6424;SDS011;12193;42.642;23.384;2022-08-19T16:34:43;11.77;;;5.70;;
6424;SDS011;12193;42.642;23.384;2022-08-19T16:37:12;5.93;;;5.30;;
6424;SDS011;12193;42.642;23.384;2022-08-19T16:39:41;8.83;;;4.90;;
6424;SDS011;12193;42.642;23.384;2022-08-19T16:42:14;11.20;;;5.50;;
6424;SDS011;12193;42.642;23.384;2022-08-19T16:44:43;9.23;;;5.10;;
6424;SDS011;12193;42.642;23.384;2022-08-19T16:47:12;7.63;;;5.20;;
6424;SDS011;12193;42.642;23.384;2022-08-19T16:49:45;7.17;;;5.40;;
6424;SDS011;12193;42.642;23.384;2022-08-19T16:52:14;11.20;;;6.00;;
6424;SDS011;12193;42.642;23.384;2022-08-19T16:54:43;11.73;;;6.00;;
6424;SDS011;12193;42.642;23.384;2022-08-19T16:57:12;7.80;;;4.67;;
6424;SDS011;12193;42.642;23.384;2022-08-19T16:59:41;7.77;;;4.83;;
6424;SDS011;12193;42.642;23.384;2022-08-19T17:02:10;8.73;;;5.40;;
6424;SDS011;12193;42.642;23.384;2022-08-19T17:04:39;6.23;;;5.33;;
6424;SDS011;12193;42.642;23.384;2022-08-19T17:07:10;8.53;;;5.50;;
6424;SDS011;12193;42.642;23.384;2022-08-19T17:09:39;8.23;;;5.83;;
6424;SDS011;12193;42.642;23.384;2022-08-19T17:12:08;7.97;;;5.40;;
6424;SDS011;12193;42.642;23.384;2022-08-19T17:14:37;6.23;;;5.50;;
6424;SDS011;12193;42.642;23.384;2022-08-19T17:17:06;10.13;;;5.43;;
6424;SDS011;12193;42.642;23.384;2022-08-19T17:19:37;7.77;;;5.30;;
6424;SDS011;12193;42.642;23.384;2022-08-19T17:22:12;12.30;;;5.83;;
6424;SDS011;12193;42.642;23.384;2022-08-19T17:24:40;7.13;;;5.40;;
6424;SDS011;12193;42.642;23.384;2022-08-19T17:27:09;9.20;;;6.00;;
6424;SDS011;12193;42.642;23.384;2022-08-19T17:29:42;12.17;;;5.37;;
6424;SDS011;12193;42.642;23.384;2022-08-19T17:32:12;7.57;;;5.87;;
6424;SDS011;12193;42.642;23.384;2022-08-19T17:34:41;7.23;;;6.27;;
6424;SDS011;12193;42.642;23.384;2022-08-19T17:37:15;8.67;;;5.67;;
6424;SDS011;12193;42.642;23.384;2022-08-19T17:39:44;10.83;;;6.40;;
6424;SDS011;12193;42.642;23.384;2022-08-19T17:42:19;8.03;;;5.93;;
6424;SDS011;12193;42.642;23.384;2022-08-19T17:44:53;7.13;;;5.20;;
6424;SDS011;12193;42.642;23.384;2022-08-19T17:47:24;8.67;;;6.20;;
6424;SDS011;12193;42.642;23.384;2022-08-19T17:49:53;10.03;;;6.13;;
6424;SDS011;12193;42.642;23.384;2022-08-19T17:52:24;8.43;;;6.80;;
6424;SDS011;12193;42.642;23.384;2022-08-19T17:54:53;12.63;;;6.60;;
6424;SDS011;12193;42.642;23.384;2022-08-19T17:57:22;10.87;;;6.43;;
6424;SDS011;12193;42.642;23.384;2022-08-19T17:59:51;10.87;;;7.03;;
6424;SDS011;12193;42.642;23.384;2022-08-19T18:02:20;10.67;;;6.67;;
6424;SDS011;12193;42.642;23.384;2022-08-19T18:04:48;10.70;;;6.70;;
6424;SDS011;12193;42.642;23.384;2022-08-19T18:07:17;12.43;;;6.90;;
6424;SDS011;12193;42.642;23.384;2022-08-19T18:09:49;8.20;;;6.20;;
6424;SDS011;12193;42.642;23.384;2022-08-19T18:12:23;9.23;;;6.17;;
6424;SDS011;12193;42.642;23.384;2022-08-19T18:14:53;8.50;;;6.23;;
6424;SDS011;12193;42.642;23.384;2022-08-19T18:17:22;9.97;;;6.73;;
6424;SDS011;12193;42.642;23.384;2022-08-19T18:19:50;9.87;;;6.63;;
6424;SDS011;12193;42.642;23.384;2022-08-19T18:22:20;7.10;;;6.00;;
6424;SDS011;12193;42.642;23.384;2022-08-19T18:24:52;8.00;;;6.33;;
6424;SDS011;12193;42.642;23.384;2022-08-19T18:27:21;10.47;;;6.53;;
6424;SDS011;12193;42.642;23.384;2022-08-19T18:29:50;9.23;;;6.27;;
6424;SDS011;12193;42.642;23.384;2022-08-19T18:32:21;9.27;;;6.47;;
6424;SDS011;12193;42.642;23.384;2022-08-19T18:34:51;11.00;;;6.60;;
6424;SDS011;12193;42.642;23.384;2022-08-19T18:37:20;14.47;;;6.47;;
6424;SDS011;12193;42.642;23.384;2022-08-19T18:39:53;10.87;;;6.63;;
6424;SDS011;12193;42.642;23.384;2022-08-19T18:42:34;7.87;;;5.50;;
6424;SDS011;12193;42.642;23.384;2022-08-19T18:45:15;9.27;;;6.27;;
6424;SDS011;12193;42.642;23.384;2022-08-19T18:47:57;10.97;;;6.37;;
6424;SDS011;12193;42.642;23.384;2022-08-19T18:50:37;11.20;;;6.80;;
6424;SDS011;12193;42.642;23.384;2022-08-19T18:53:09;9.17;;;5.73;;
6424;SDS011;12193;42.642;23.384;2022-08-19T18:55:41;11.40;;;6.50;;
6424;SDS011;12193;42.642;23.384;2022-08-19T18:58:10;9.60;;;6.30;;